EGXE - Leeming
Distance from station: E 5mi, 14km
Updated: 01/21/2018 5:50am
Light snow, Overcast
Light snow, Overcast
 Wind from SSE
Wind: SSE 15 mph , 24 km/h
Temperature: 32°F , 0°C
Wind Chill: 22°F , -6°C
Dew Point: 32°F , 0°C
Humidity: 100%
Barometer: 29.74 inHg , 1007 hPa
Summary: Light Snow
Clouds: Overcast
Visibility: 2 miles , 3 km
Cloud details: Overcast 300 ft
2018/01/21 13:50 EGXE 211350Z AUTO 15013KT 2800 -SN OVC003/// 00/00 Q1007